Time;durP1;ratioP1;P1;durP2;ratioP2;P2;SDS_P1;SDS_P2;PMS_P1;PMS_P2;Temp;Humidity;BMP_temperature;BMP_pressure;BME280_temperature;BME280_humidity;BME280_pressure;Samples;Min_cycle;Max_cycle;Signal;HPM_P1;HPM_P2
2023/05/27 00:01:32;;;;;;;5.32;1.33;;;7.70;99.90;;;;;;5072978;28;20156;-63
2023/05/27 00:03:58;;;;;;;2.90;1.40;;;7.70;99.90;;;;;;5072956;28;20500;-63
2023/05/27 00:06:23;;;;;;;6.72;1.52;;;7.70;99.90;;;;;;5073190;28;20062;-63
2023/05/27 00:08:49;;;;;;;3.45;1.45;;;7.60;1.00;;;;;;5073226;28;20041;-63
2023/05/27 00:11:15;;;;;;;6.97;1.27;;;6.60;99.90;;;;;;5072880;28;20047;-63
2023/05/27 00:13:40;;;;;;;8.23;1.45;;;7.70;1.00;;;;;;5072743;28;20048;-63
2023/05/27 00:16:07;;;;;;;5.60;1.33;;;7.70;99.90;;;;;;5073172;28;20166;-63
2023/05/27 00:18:32;;;;;;;4.18;1.60;;;7.60;99.90;;;;;;5071485;28;20420;-63
2023/05/27 00:20:59;;;;;;;3.13;1.55;;;7.60;1.00;;;;;;5072822;28;20124;-63
2023/05/27 00:23:25;;;;;;;3.38;1.45;;;7.60;25.10;;;;;;5072783;28;20036;-63
2023/05/27 00:25:50;;;;;;;6.82;1.73;;;7.60;99.90;;;;;;5072727;28;20086;-63
2023/05/27 00:28:16;;;;;;;1.90;1.13;;;7.60;1.00;;;;;;5073001;28;20036;-63
2023/05/27 00:30:41;;;;;;;5.00;1.85;;;7.60;1.00;;;;;;5072975;28;20538;-63
2023/05/27 00:33:07;;;;;;;3.70;1.45;;;7.50;99.90;;;;;;5073187;28;20037;-63
2023/05/27 00:35:33;;;;;;;4.88;1.52;;;7.50;99.90;;;;;;5072921;28;20412;-63
2023/05/27 00:37:58;;;;;;;5.07;1.52;;;7.40;20.90;;;;;;5072919;28;20395;-63
2023/05/27 00:40:26;;;;;;;5.75;1.70;;;7.30;99.90;;;;;;5072934;28;20049;-63
2023/05/27 00:42:51;;;;;;;4.10;1.63;;;7.40;99.90;;;;;;5072968;28;20388;-67
2023/05/27 00:45:17;;;;;;;8.18;1.42;;;7.40;99.90;;;;;;5072820;28;20032;-63
2023/05/27 00:47:43;;;;;;;8.55;1.80;;;7.20;99.90;;;;;;5054760;28;20052;-63
2023/05/27 00:50:09;;;;;;;5.65;1.60;;;7.60;99.90;;;;;;5072798;28;20091;-63
2023/05/27 00:52:35;;;;;;;7.28;1.63;;;7.40;1.00;;;;;;5072740;28;20068;-63
2023/05/27 00:55:00;;;;;;;3.25;1.30;;;7.30;1.00;;;;;;5072797;28;20068;-63
2023/05/27 00:57:26;;;;;;;9.90;2.15;;;7.30;58.30;;;;;;5072689;28;20045;-63
2023/05/27 00:59:52;;;;;;;6.70;2.05;;;7.20;99.90;;;;;;5072313;28;20094;-63
2023/05/27 01:02:18;;;;;;;6.80;1.80;;;7.20;1.00;;;;;;5072747;28;20040;-63
2023/05/27 01:04:46;;;;;;;3.33;1.30;;;7.20;99.90;;;;;;5054823;28;20037;-63
2023/05/27 01:07:22;;;;;;;7.18;1.75;;;7.20;99.90;;;;;;5072385;28;20076;-63
2023/05/27 01:10:12;;;;;;;4.72;1.52;;;7.30;99.90;;;;;;5071131;28;20048;-63
2023/05/27 01:12:50;;;;;;;4.32;1.60;;;7.20;99.90;;;;;;5072326;28;20052;-63
2023/05/27 01:15:18;;;;;;;7.03;1.92;;;7.20;67.70;;;;;;5076233;28;20127;-63
2023/05/27 01:17:46;;;;;;;7.20;1.73;;;7.20;99.90;;;;;;5076409;28;20495;-63
2023/05/27 01:20:14;;;;;;;3.35;1.40;;;7.60;97.00;;;;;;5076431;28;20076;-63
2023/05/27 01:22:41;;;;;;;3.40;1.63;;;7.10;99.90;;;;;;5058146;28;20044;-63
2023/05/27 01:25:09;;;;;;;3.00;1.70;;;7.20;99.50;;;;;;5076284;28;20036;-63
2023/05/27 01:27:34;;;;;;;3.85;1.38;;;7.10;99.90;;;;;;5075880;28;20028;-63
2023/05/27 01:30:01;;;;;;;9.98;1.95;;;7.20;99.90;;;;;;5075886;28;20075;-63
2023/05/27 01:32:51;;;;;;;3.88;1.60;;;7.90;99.90;;;;;;5076079;28;20404;-63
2023/05/27 01:35:29;;;;;;;4.50;1.90;;;7.20;99.90;;;;;;5076118;28;20532;-63
2023/05/27 01:37:57;;;;;;;4.70;1.83;;;7.20;99.90;;;;;;5058061;28;20571;-63
2023/05/27 01:40:24;;;;;;;2.03;1.20;;;7.20;99.90;;;;;;5075948;28;20470;-63
2023/05/27 01:42:50;;;;;;;5.63;1.70;;;7.20;1.00;;;;;;5075635;28;20037;-63
2023/05/27 01:45:16;;;;;;;5.60;1.55;;;7.10;1.00;;;;;;5057730;28;20040;-63
2023/05/27 01:47:44;;;;;;;6.78;2.10;;;7.00;1.00;;;;;;5075803;28;20488;-63
2023/05/27 01:50:10;;;;;;;6.63;1.70;;;7.00;96.80;;;;;;5075566;28;20052;-63
2023/05/27 01:52:36;;;;;;;7.47;1.60;;;7.00;99.90;;;;;;5075495;28;20055;-63
2023/05/27 01:55:03;;;;;;;4.22;1.42;;;7.00;99.90;;;;;;5075379;28;20041;-63
2023/05/27 01:57:29;;;;;;;5.20;1.67;;;6.90;99.90;;;;;;5057500;28;20071;-64
2023/05/27 01:59:55;;;;;;;3.40;1.17;;;7.00;99.90;;;;;;5075289;28;20080;-63
2023/05/27 02:02:20;;;;;;;4.95;1.35;;;6.40;99.90;;;;;;5057886;28;20041;-63
2023/05/27 02:04:46;;;;;;;3.25;1.70;;;7.00;79.90;;;;;;5075467;28;20443;-63
2023/05/27 02:07:11;;;;;;;8.77;1.77;;;7.00;99.90;;;;;;5075483;28;20040;-63
2023/05/27 02:09:37;;;;;;;5.22;1.65;;;7.00;99.90;;;;;;5075404;28;20072;-63
2023/05/27 02:12:03;;;;;;;4.03;1.42;;;7.00;1.00;;;;;;5075005;28;20058;-63
2023/05/27 02:14:28;;;;;;;6.55;1.83;;;7.10;99.90;;;;;;5075312;28;20036;-63
2023/05/27 02:16:54;;;;;;;5.47;1.27;;;7.10;30.90;;;;;;5075372;28;20044;-63
2023/05/27 02:19:20;;;;;;;2.33;1.20;;;7.20;99.90;;;;;;5057082;28;20469;-63
2023/05/27 02:21:46;;;;;;;7.53;1.98;;;7.20;99.90;;;;;;5074943;28;20055;-63
2023/05/27 02:24:12;;;;;;;3.42;1.58;;;7.30;99.90;;;;;;5073886;28;20040;-63
2023/05/27 02:26:37;;;;;;;4.82;1.92;;;7.30;99.90;;;;;;5074245;28;20041;-63
2023/05/27 02:29:03;;;;;;;2.50;1.27;;;7.30;99.90;;;;;;5074904;28;20048;-63
2023/05/27 02:31:28;;;;;;;7.70;2.05;;;7.40;99.90;;;;;;5075032;28;20094;-63
2023/05/27 02:33:54;;;;;;;4.53;1.42;;;7.30;99.90;;;;;;5075056;28;20036;-63
2023/05/27 02:36:21;;;;;;;4.03;1.70;;;7.30;99.90;;;;;;5056805;28;20050;-64
2023/05/27 02:38:46;;;;;;;2.30;1.33;;;7.40;99.90;;;;;;5056840;28;20115;-63
2023/05/27 02:41:12;;;;;;;3.05;1.60;;;7.30;99.90;;;;;;5074858;28;20075;-63
2023/05/27 02:43:37;;;;;;;10.15;1.40;;;7.30;99.90;;;;;;5073374;28;20460;-63
2023/05/27 02:46:03;;;;;;;4.32;1.55;;;7.20;99.90;;;;;;5074788;28;20032;-63
2023/05/27 02:48:29;;;;;;;6.78;1.67;;;7.30;99.90;;;;;;5039961;28;20047;-63
2023/05/27 02:50:54;;;;;;;4.55;1.40;;;7.20;99.90;;;;;;5056739;28;20535;-63
2023/05/27 02:53:20;;;;;;;4.38;1.60;;;7.30;99.90;;;;;;5074642;28;20036;-63
2023/05/27 02:55:46;;;;;;;3.17;1.33;;;7.40;99.90;;;;;;5074522;28;20039;-63
2023/05/27 02:58:11;;;;;;;2.85;1.40;;;7.40;99.90;;;;;;5074491;28;20048;-63
2023/05/27 03:00:37;;;;;;;6.82;1.55;;;7.40;99.90;;;;;;5074434;28;20032;-63
2023/05/27 03:03:06;;;;;;;6.43;1.98;;;7.50;99.90;;;;;;5074394;28;20480;-63
2023/05/27 03:05:32;;;;;;;3.55;1.52;;;9.30;99.90;;;;;;5074127;28;20066;-63
2023/05/27 03:07:59;;;;;;;3.60;1.50;;;7.50;99.90;;;;;;5074305;28;20044;-63
2023/05/27 03:10:24;;;;;;;6.15;1.52;;;7.50;99.90;;;;;;5074206;28;20032;-63
2023/05/27 03:12:50;;;;;;;3.28;1.63;;;7.50;99.90;;;;;;5073991;28;20106;-63
2023/05/27 03:15:15;;;;;;;8.93;1.70;;;7.40;1.00;;;;;;5056267;28;20040;-63
2023/05/27 03:17:41;;;;;;;5.43;1.52;;;8.20;99.90;;;;;;5074104;28;20072;-63
2023/05/27 03:20:07;;;;;;;4.50;1.70;;;7.40;99.90;;;;;;5074026;28;20396;-67
2023/05/27 03:22:35;;;;;;;2.17;1.23;;;7.50;99.90;;;;;;5073969;28;20040;-63
2023/05/27 03:25:01;;;;;;;3.53;1.20;;;7.60;1.00;;;;;;5073985;28;20033;-63
2023/05/27 03:27:27;;;;;;;3.72;1.30;;;7.60;1.00;;;;;;5055671;28;20376;-63
2023/05/27 03:29:52;;;;;;;3.65;1.02;;;7.60;1.00;;;;;;5055664;28;20048;-63
2023/05/27 03:32:18;;;;;;;6.03;1.90;;;7.70;1.00;;;;;;5073863;28;20080;-63
2023/05/27 03:34:43;;;;;;;7.20;1.63;;;7.70;1.00;;;;;;5073470;28;20045;-63
2023/05/27 03:37:09;;;;;;;2.83;1.65;;;7.80;1.00;;;;;;5055749;28;20054;-63
2023/05/27 03:39:35;;;;;;;4.95;1.38;;;7.80;1.00;;;;;;5055723;28;20036;-63
2023/05/27 03:42:01;;;;;;;6.65;1.80;;;7.80;1.00;;;;;;5055588;28;20074;-63
2023/05/27 03:44:26;;;;;;;8.73;2.80;;;7.80;1.00;;;;;;5073573;28;20039;-63
2023/05/27 03:46:52;;;;;;;2.95;1.38;;;7.90;1.00;;;;;;5073576;28;20422;-63
2023/05/27 03:49:17;;;;;;;3.45;1.25;;;7.80;1.00;;;;;;5073490;28;20040;-63
2023/05/27 03:51:43;;;;;;;3.45;0.90;;;8.20;1.00;;;;;;5073395;28;20037;-63
2023/05/27 03:54:09;;;;;;;5.20;1.35;;;7.90;1.00;;;;;;5073439;28;20488;-63
2023/05/27 03:56:34;;;;;;;2.80;1.20;;;7.80;1.00;;;;;;5073354;28;20040;-63
2023/05/27 03:59:00;;;;;;;4.90;1.58;;;7.80;1.00;;;;;;5073349;28;20068;-63
2023/05/27 04:01:27;;;;;;;8.75;2.45;;;7.80;1.00;;;;;;5073240;28;20412;-63
2023/05/27 04:03:53;;;;;;;7.60;1.75;;;7.80;1.00;;;;;;5055116;28;20454;-66
2023/05/27 04:06:18;;;;;;;4.38;1.60;;;7.80;1.00;;;;;;5073206;28;20052;-63
2023/05/27 04:08:44;;;;;;;2.30;1.33;;;7.80;99.90;;;;;;5073244;28;20500;-63
2023/05/27 04:11:12;;;;;;;4.03;1.08;;;7.80;99.90;;;;;;5072966;28;20560;-63
2023/05/27 04:13:38;;;;;;;16.88;1.70;;;8.80;1.00;;;;;;5072814;28;20412;-63
2023/05/27 04:16:04;;;;;;;5.93;1.70;;;7.80;1.00;;;;;;5073108;28;20040;-63
2023/05/27 04:18:29;;;;;;;9.52;2.05;;;7.80;1.00;;;;;;5073053;28;20090;-63
2023/05/27 04:20:55;;;;;;;5.72;1.95;;;7.80;1.00;;;;;;5073116;28;20515;-63
2023/05/27 04:23:21;;;;;;;8.10;1.50;;;7.90;1.00;;;;;;5055181;28;20075;-63
2023/05/27 04:25:48;;;;;;;5.38;1.67;;;8.00;1.00;;;;;;5055062;28;20036;-63
2023/05/27 04:28:15;;;;;;;5.47;1.35;;;8.00;1.00;;;;;;5073004;28;20412;-63
2023/05/27 04:30:41;;;;;;;12.88;2.00;;;8.10;1.00;;;;;;5072964;28;20107;-63
2023/05/27 04:33:07;;;;;;;4.10;1.30;;;8.20;1.00;;;;;;5072919;28;20071;-63
2023/05/27 04:35:33;;;;;;;5.50;2.08;;;8.30;1.00;;;;;;5072817;28;20036;-63
2023/05/27 04:38:00;;;;;;;4.72;1.40;;;8.30;99.90;;;;;;5054859;28;20044;-63
2023/05/27 04:40:28;;;;;;;5.07;1.30;;;8.30;99.90;;;;;;5072763;28;20405;-63
2023/05/27 04:42:54;;;;;;;5.28;1.38;;;8.40;99.90;;;;;;5072826;28;20037;-63
2023/05/27 04:45:20;;;;;;;8.35;1.90;;;8.90;99.90;;;;;;5072675;28;20111;-63
2023/05/27 04:47:46;;;;;;;3.95;1.17;;;8.90;99.90;;;;;;5054842;28;20106;-64
2023/05/27 04:50:13;;;;;;;4.70;1.40;;;8.80;99.90;;;;;;5076289;28;20120;-63
2023/05/27 04:52:41;;;;;;;3.20;1.35;;;8.70;99.90;;;;;;5058606;28;20048;-63
2023/05/27 04:55:08;;;;;;;6.82;1.45;;;8.50;37.70;;;;;;5076713;28;20075;-63
2023/05/27 04:57:35;;;;;;;5.50;1.95;;;8.80;1.00;;;;;;5058854;28;20124;-63
2023/05/27 05:02:35;;;;;;;3.25;1.60;;;;;;;;;;5076596;28;20047;-63
2023/05/27 05:05:11;;;;;;;5.82;2.10;;;;;;;;;;5076593;28;20037;-63
2023/05/27 05:07:37;;;;;;;3.20;1.20;;;;;;;;;;5076525;28;20041;-63
2023/05/27 05:10:07;;;;;;;3.20;1.38;;;;;;;;;;5076502;28;20080;-63
2023/05/27 05:12:33;;;;;;;10.95;2.40;;;;;;;;;;5076014;28;20113;-63
2023/05/27 05:14:59;;;;;;;8.55;2.10;;;;;;;;;;5076139;28;20112;-63
2023/05/27 05:17:25;;;;;;;5.47;1.60;;;9.50;99.90;;;;;;5076432;28;20451;-63
2023/05/27 05:19:51;;;;;;;4.78;1.65;;;9.40;99.90;;;;;;5076374;28;20036;-63
2023/05/27 05:22:22;;;;;;;4.13;1.52;;;9.60;1.00;;;;;;5076026;28;20123;-63
2023/05/27 05:24:48;;;;;;;5.40;1.20;;;9.40;99.90;;;;;;5076084;28;20032;-63
2023/05/27 05:27:14;;;;;;;6.13;1.88;;;9.50;1.00;;;;;;5076238;28;20415;-63
2023/05/27 05:29:40;;;;;;;3.58;1.50;;;9.30;99.90;;;;;;5076153;28;20040;-63
2023/05/27 05:32:06;;;;;;;8.32;1.63;;;10.00;99.90;;;;;;5075852;28;20040;-63
2023/05/27 05:34:31;;;;;;;2.78;1.10;;;9.30;99.90;;;;;;5076135;28;20043;-63
2023/05/27 05:36:57;;;;;;;6.57;1.63;;;9.30;99.90;;;;;;5076093;28;20369;-63
2023/05/27 05:39:23;;;;;;;3.70;1.88;;;9.30;99.90;;;;;;5075856;28;20051;-63
2023/05/27 05:41:49;;;;;;;2.45;1.48;;;9.30;99.90;;;;;;5076072;28;20041;-63
2023/05/27 05:44:15;;;;;;;8.45;1.80;;;9.10;1.00;;;;;;5075977;28;20040;-64
2023/05/27 05:46:41;;;;;;;5.82;1.33;;;9.10;99.90;;;;;;5075918;28;20087;-63
2023/05/27 05:49:07;;;;;;;12.70;2.17;;;9.20;99.90;;;;;;5057680;28;20403;-63
2023/05/27 05:51:33;;;;;;;8.25;2.10;;;9.90;92.20;;;;;;5057749;28;20055;-63
2023/05/27 05:53:58;;;;;;;3.47;1.65;;;9.30;36.60;;;;;;5075542;28;20037;-63
2023/05/27 05:56:25;;;;;;;3.55;1.63;;;9.30;74.40;;;;;;5075704;28;20032;-63
2023/05/27 05:58:51;;;;;;;4.53;1.77;;;9.40;99.90;;;;;;5075298;28;20044;-63
2023/05/27 06:01:17;;;;;;;5.88;1.63;;;9.50;6.40;;;;;;5074170;28;20039;-63
2023/05/27 06:03:43;;;;;;;6.90;1.67;;;9.70;1.00;;;;;;5075589;28;20043;-63
2023/05/27 06:06:09;;;;;;;10.68;2.15;;;9.80;99.90;;;;;;5075593;28;20472;-63
2023/05/27 06:08:34;;;;;;;6.10;2.08;;;10.00;1.00;;;;;;5075146;28;20047;-63
2023/05/27 06:11:00;;;;;;;4.60;1.75;;;10.20;61.50;;;;;;5075105;28;20048;-63
2023/05/27 06:13:26;;;;;;;4.30;1.35;;;10.30;1.00;;;;;;5075112;28;20057;-63
2023/05/27 06:15:51;;;;;;;5.30;1.90;;;10.30;99.90;;;;;;5075451;28;20075;-64
2023/05/27 06:18:17;;;;;;;3.85;1.30;;;10.20;1.00;;;;;;5057298;28;20044;-63
2023/05/27 06:20:43;;;;;;;7.43;2.22;;;10.40;99.90;;;;;;5075279;28;20463;-63
2023/05/27 06:23:09;;;;;;;3.72;1.88;;;10.40;99.90;;;;;;5075305;28;20037;-63
2023/05/27 06:25:34;;;;;;;3.72;1.98;;;10.30;99.90;;;;;;5074859;28;20082;-63
2023/05/27 06:28:00;;;;;;;4.45;1.70;;;10.40;2.40;;;;;;5074800;28;20086;-63
2023/05/27 06:30:27;;;;;;;5.03;1.95;;;10.40;1.00;;;;;;5075028;28;20032;-63
2023/05/27 06:32:53;;;;;;;3.80;1.50;;;10.50;99.90;;;;;;5056842;28;20083;-63
2023/05/27 06:35:18;;;;;;;4.82;1.85;;;10.50;99.90;;;;;;5075004;28;20083;-63
2023/05/27 06:37:44;;;;;;;7.20;1.70;;;10.70;99.90;;;;;;5074961;28;20044;-63
2023/05/27 06:40:10;;;;;;;3.05;1.70;;;10.80;1.00;;;;;;5057045;28;20036;-63
2023/05/27 06:42:37;;;;;;;4.78;1.48;;;11.00;99.90;;;;;;5074854;28;20044;-63
2023/05/27 06:45:03;;;;;;;8.85;1.80;;;11.10;1.00;;;;;;5074882;28;20169;-63
2023/05/27 06:47:28;;;;;;;11.02;1.63;;;11.20;99.90;;;;;;5074848;28;20486;-63
2023/05/27 06:49:54;;;;;;;3.92;1.23;;;11.40;99.90;;;;;;5074783;28;20108;-63
2023/05/27 06:52:20;;;;;;;7.28;1.58;;;11.60;99.90;;;;;;5056727;28;20078;-63
2023/05/27 06:54:47;;;;;;;8.73;1.52;;;11.80;1.00;;;;;;5074647;28;20040;-63
2023/05/27 06:57:13;;;;;;;7.30;1.80;;;11.90;1.00;;;;;;5074526;28;20097;-63
2023/05/27 06:59:39;;;;;;;3.50;1.20;;;12.00;99.90;;;;;;5074486;28;20115;-63
2023/05/27 07:02:06;;;;;;;8.32;1.65;;;12.20;1.00;;;;;;5056511;28;20044;-63
2023/05/27 07:04:31;;;;;;;4.65;1.52;;;12.50;99.90;;;;;;5074402;28;20076;-63
2023/05/27 07:06:57;;;;;;;11.68;1.85;;;12.70;99.90;;;;;;5056293;28;20090;-64
2023/05/27 07:09:23;;;;;;;3.83;1.23;;;12.90;1.00;;;;;;5056517;28;20040;-64
2023/05/27 07:11:48;;;;;;;7.10;2.05;;;13.10;1.00;;;;;;5073698;28;20098;-63
2023/05/27 07:14:14;;;;;;;7.93;2.20;;;13.00;99.90;;;;;;5072689;28;20151;-63
2023/05/27 07:16:40;;;;;;;4.75;1.70;;;13.20;99.90;;;;;;5056259;28;20040;-63
2023/05/27 07:19:06;;;;;;;5.78;1.52;;;13.10;99.90;;;;;;5074063;28;20542;-63
2023/05/27 07:21:32;;;;;;;4.15;1.60;;;13.10;99.90;;;;;;5056431;28;20423;-63
2023/05/27 07:23:58;;;;;;;5.95;1.52;;;13.20;99.90;;;;;;5073744;28;20116;-63
2023/05/27 07:26:26;;;;;;;7.78;1.50;;;13.30;99.90;;;;;;5073925;28;20439;-63
2023/05/27 07:28:52;;;;;;;4.45;1.35;;;13.60;99.90;;;;;;5073900;28;20054;-63
2023/05/27 07:31:18;;;;;;;6.75;1.65;;;13.60;99.90;;;;;;5073567;28;20477;-63
2023/05/27 07:33:43;;;;;;;7.90;1.80;;;13.60;99.90;;;;;;5073908;28;20044;-63
2023/05/27 07:36:10;;;;;;;7.47;2.08;;;13.50;99.90;;;;;;5073507;28;20408;-63
2023/05/27 07:38:35;;;;;;;7.53;1.83;;;13.40;99.90;;;;;;5073649;28;20047;-63
2023/05/27 07:41:01;;;;;;;4.18;1.73;;;13.40;99.90;;;;;;5073706;28;20032;-63
2023/05/27 07:43:27;;;;;;;8.82;1.60;;;13.80;99.90;;;;;;5073605;28;20469;-63
2023/05/27 07:45:52;;;;;;;7.95;1.73;;;13.80;99.90;;;;;;5073666;28;20129;-63
2023/05/27 07:48:18;;;;;;;7.05;1.27;;;14.00;99.90;;;;;;5073597;28;20519;-63
2023/05/27 07:50:43;;;;;;;5.45;1.95;;;13.90;99.90;;;;;;5073520;28;20055;-63
2023/05/27 07:53:09;;;;;;;2.65;1.10;;;14.10;99.90;;;;;;5073297;28;20473;-64
2023/05/27 07:55:34;;;;;;;3.75;1.40;;;14.10;99.90;;;;;;5073446;28;20040;-63
2023/05/27 07:58:00;;;;;;;3.05;1.25;;;15.00;99.90;;;;;;5055245;28;20036;-63
2023/05/27 08:00:26;;;;;;;5.53;1.48;;;14.70;99.90;;;;;;5072975;28;20431;-64
2023/05/27 08:02:51;;;;;;;7.55;1.50;;;15.50;99.90;;;;;;5073272;28;20064;-63
2023/05/27 08:05:17;;;;;;;7.35;1.75;;;15.30;99.90;;;;;;5073271;28;20035;-63
2023/05/27 08:07:42;;;;;;;3.92;1.52;;;15.30;99.90;;;;;;5055219;28;20116;-63
2023/05/27 08:10:09;;;;;;;3.85;1.40;;;14.90;99.90;;;;;;5054781;28;20067;-63
2023/05/27 08:12:34;;;;;;;10.88;1.90;;;15.00;99.90;;;;;;5055057;28;20059;-63
2023/05/27 08:15:00;;;;;;;5.35;1.60;;;15.00;99.90;;;;;;5072877;28;20408;-63
2023/05/27 08:17:26;;;;;;;8.00;1.92;;;15.20;99.90;;;;;;5072815;28;20086;-63
2023/05/27 08:19:51;;;;;;;6.38;1.52;;;15.10;99.90;;;;;;5073200;28;20032;-63
2023/05/27 08:22:17;;;;;;;4.22;1.55;;;15.10;99.90;;;;;;5073132;28;20032;-63
2023/05/27 08:24:43;;;;;;;4.82;1.52;;;15.30;99.90;;;;;;5072222;28;20115;-63
2023/05/27 08:27:17;;;;;;;4.38;1.60;;;15.40;99.90;;;;;;5073178;28;20076;-63
2023/05/27 08:29:43;;;;;;;4.13;1.33;;;15.60;99.90;;;;;;5072723;28;20044;-63
2023/05/27 08:32:09;;;;;;;5.15;1.90;;;15.60;99.90;;;;;;5073031;28;20412;-63
2023/05/27 08:34:35;;;;;;;8.98;1.90;;;15.80;99.90;;;;;;5072870;28;20036;-63
2023/05/27 08:37:01;;;;;;;5.50;1.40;;;15.80;99.90;;;;;;5072524;28;20036;-63
2023/05/27 08:39:27;;;;;;;4.93;1.30;;;15.60;99.90;;;;;;5072317;28;20045;-63
2023/05/27 08:41:56;;;;;;;8.00;2.13;;;15.70;99.90;;;;;;5072511;28;20165;-63
2023/05/27 08:44:23;;;;;;;10.63;2.13;;;15.70;99.90;;;;;;5054812;28;20076;-63
2023/05/27 08:46:50;;;;;;;8.20;1.90;;;15.80;99.90;;;;;;5072727;28;20047;-63
2023/05/27 08:49:16;;;;;;;5.70;1.92;;;15.90;99.90;;;;;;5072763;28;20040;-64
2023/05/27 08:51:41;;;;;;;8.57;1.83;;;15.90;99.90;;;;;;5072718;28;20043;-63
2023/05/27 08:54:09;;;;;;;5.22;1.70;;;16.10;99.90;;;;;;5054551;28;20049;-63
2023/05/27 08:56:36;;;;;;;5.07;1.50;;;15.80;99.90;;;;;;5054936;28;20037;-63
2023/05/27 08:59:02;;;;;;;6.43;1.73;;;15.80;99.90;;;;;;5072415;28;20044;-63
2023/05/27 09:01:30;;;;;;;3.00;1.48;;;15.90;99.90;;;;;;5072648;28;20128;-63
2023/05/27 09:03:56;;;;;;;3.67;1.40;;;16.00;97.30;;;;;;5054708;28;20052;-64
2023/05/27 09:06:22;;;;;;;4.05;1.70;;;16.10;99.90;;;;;;5072651;28;20397;-63
2023/05/27 09:08:47;;;;;;;4.40;1.80;;;16.20;99.90;;;;;;5037830;28;20047;-63
2023/05/27 09:11:27;;;;;;;4.90;1.55;;;16.20;99.90;;;;;;5072287;28;20095;-63
2023/05/27 09:13:57;;;;;;;3.50;1.63;;;16.20;99.90;;;;;;5054312;28;20080;-63
2023/05/27 09:16:23;;;;;;;11.15;1.98;;;15.90;99.90;;;;;;5072520;28;20048;-63
2023/05/27 09:18:49;;;;;;;3.78;1.50;;;16.40;99.10;;;;;;5072231;28;20049;-64
2023/05/27 09:21:15;;;;;;;3.67;1.65;;;16.30;94.30;;;;;;5072578;28;20115;-64
2023/05/27 09:23:41;;;;;;;14.38;2.15;;;16.20;95.30;;;;;;5072233;28;20037;-63
2023/05/27 09:26:11;;;;;;;5.25;1.52;;;16.40;91.60;;;;;;5072491;28;20047;-64
2023/05/27 09:28:37;;;;;;;7.20;1.90;;;16.50;94.00;;;;;;5072468;28;20530;-63
2023/05/27 09:31:04;;;;;;;3.42;1.25;;;16.70;85.80;;;;;;5054439;28;20044;-64
2023/05/27 09:33:32;;;;;;;4.45;1.60;;;16.60;88.20;;;;;;5072080;28;20048;-64
2023/05/27 09:35:59;;;;;;;6.95;1.50;;;17.30;99.90;;;;;;5075262;28;20561;-63
2023/05/27 09:38:28;;;;;;;9.48;2.15;;;17.20;99.90;;;;;;5075966;28;20460;-64
2023/05/27 09:40:54;;;;;;;9.30;1.50;;;16.90;99.90;;;;;;5075970;28;20032;-64
2023/05/27 09:43:20;;;;;;;7.55;1.52;;;17.20;99.90;;;;;;5075933;28;20032;-63
2023/05/27 09:45:45;;;;;;;7.57;1.63;;;17.20;99.90;;;;;;5075912;28;20076;-63
2023/05/27 09:48:15;;;;;;;8.40;1.58;;;17.00;99.90;;;;;;5075926;28;20115;-64
2023/05/27 09:50:41;;;;;;;3.97;1.65;;;17.10;99.90;;;;;;5075797;28;20085;-63
2023/05/27 09:53:07;;;;;;;3.25;1.20;;;16.90;99.90;;;;;;5075812;28;20128;-63
2023/05/27 09:55:33;;;;;;;5.65;1.98;;;17.30;98.20;;;;;;5075767;28;20068;-63
2023/05/27 09:58:00;;;;;;;5.75;1.70;;;17.30;83.00;;;;;;5075754;28;20039;-63
2023/05/27 10:00:27;;;;;;;5.15;2.00;;;17.20;71.70;;;;;;5075589;28;20044;-63
2023/05/27 10:02:53;;;;;;;4.55;1.70;;;17.20;74.80;;;;;;5075568;28;20480;-64
2023/05/27 10:05:20;;;;;;;4.70;1.50;;;17.90;75.20;;;;;;5075303;28;20040;-64
2023/05/27 10:07:46;;;;;;;5.93;1.80;;;17.60;82.00;;;;;;5075534;28;20082;-64
2023/05/27 10:10:17;;;;;;;7.13;2.13;;;17.60;79.80;;;;;;5057280;28;20128;-63
2023/05/27 10:12:44;;;;;;;2.00;1.27;;;17.60;69.60;;;;;;5075201;28;20109;-64
2023/05/27 10:15:33;;;;;;;7.25;1.73;;;17.60;74.50;;;;;;5075430;28;20086;-63
2023/05/27 10:18:06;;;;;;;12.10;1.90;;;17.50;67.40;;;;;;5075233;28;20563;-63
2023/05/27 10:20:33;;;;;;;6.57;1.90;;;17.60;73.20;;;;;;5075256;28;20049;-63
2023/05/27 10:23:27;;;;;;;6.15;1.73;;;17.50;71.40;;;;;;5075304;28;20037;-63
2023/05/27 10:26:06;;;;;;;4.68;1.80;;;17.60;64.80;;;;;;5075239;28;20098;-63
2023/05/27 10:28:37;;;;;;;4.80;2.00;;;17.60;67.20;;;;;;5073636;28;20040;-63
2023/05/27 10:31:16;;;;;;;4.15;1.40;;;17.70;72.30;;;;;;5075142;28;20048;-63
2023/05/27 10:33:44;;;;;;;5.50;1.70;;;17.70;63.90;;;;;;5075069;28;20044;-63
2023/05/27 10:36:11;;;;;;;6.88;2.15;;;17.60;63.80;;;;;;5075072;28;20480;-63
2023/05/27 10:38:37;;;;;;;9.48;1.85;;;17.70;65.60;;;;;;5074823;28;20543;-64
2023/05/27 10:41:05;;;;;;;7.05;1.98;;;17.70;83.40;;;;;;5056977;28;20051;-63
2023/05/27 10:43:33;;;;;;;6.38;2.10;;;17.70;66.90;;;;;;5056704;28;20044;-64
2023/05/27 10:46:16;;;;;;;5.00;2.20;;;17.80;69.20;;;;;;5074016;28;20101;-64
2023/05/27 10:48:42;;;;;;;7.05;2.38;;;17.70;62.40;;;;;;5074844;28;20055;-63
2023/05/27 10:51:08;;;;;;;6.35;1.80;;;17.80;67.50;;;;;;5074844;28;20044;-63
2023/05/27 10:53:37;;;;;;;5.88;1.95;;;17.80;63.00;;;;;;5074737;28;20098;-64
2023/05/27 10:56:03;;;;;;;4.78;1.92;;;17.90;64.40;;;;;;5074708;28;20407;-64
2023/05/27 10:58:29;;;;;;;4.68;2.05;;;17.90;65.10;;;;;;5056651;28;20044;-65
2023/05/27 11:00:58;;;;;;;7.80;2.00;;;18.30;59.00;;;;;;5074249;28;20047;-63
2023/05/27 11:03:26;;;;;;;10.07;1.80;;;17.70;63.00;;;;;;5074265;28;20075;-63
2023/05/27 11:06:01;;;;;;;3.50;1.80;;;17.80;65.00;;;;;;5074241;28;20107;-63
2023/05/27 11:08:28;;;;;;;4.05;1.83;;;17.90;61.20;;;;;;5074484;28;20090;-63
2023/05/27 11:11:01;;;;;;;9.52;1.60;;;17.70;48.80;;;;;;5074395;28;20036;-63
2023/05/27 11:13:31;;;;;;;5.55;2.10;;;18.10;52.00;;;;;;5073908;28;20101;-63
2023/05/27 11:15:56;;;;;;;5.07;1.40;;;17.90;56.40;;;;;;5073910;28;20123;-63
2023/05/27 11:18:22;;;;;;;2.35;1.30;;;17.80;59.40;;;;;;5074093;28;20079;-63
2023/05/27 11:20:47;;;;;;;3.40;1.92;;;18.00;58.60;;;;;;5056010;28;20047;-63
2023/05/27 11:23:13;;;;;;;6.60;1.85;;;18.00;55.20;;;;;;5074147;28;20590;-63
2023/05/27 11:25:43;;;;;;;5.18;2.00;;;18.10;60.80;;;;;;5074074;28;20037;-63
2023/05/27 11:28:17;;;;;;;10.57;2.13;;;18.10;54.80;;;;;;5074044;28;20037;-63
2023/05/27 11:30:43;;;;;;;6.60;1.48;;;18.20;57.30;;;;;;5073896;28;20037;-64
2023/05/27 11:33:09;;;;;;;5.65;1.80;;;18.20;53.50;;;;;;5073994;28;20063;-63
2023/05/27 11:35:35;;;;;;;7.55;2.25;;;18.30;57.00;;;;;;5073651;28;20044;-63
2023/05/27 11:38:02;;;;;;;3.90;1.70;;;18.20;53.10;;;;;;5073944;28;20039;-63
2023/05/27 11:40:35;;;;;;;5.65;1.60;;;18.20;53.60;;;;;;5073462;28;20098;-64
2023/05/27 11:43:03;;;;;;;5.45;1.77;;;18.30;58.10;;;;;;5073774;28;20499;-64
2023/05/27 11:45:31;;;;;;;7.13;1.95;;;18.40;54.50;;;;;;5072418;28;20036;-64
2023/05/27 11:47:56;;;;;;;7.70;1.90;;;18.50;67.30;;;;;;5073473;28;20032;-64
2023/05/27 11:50:22;;;;;;;5.05;1.92;;;18.50;54.90;;;;;;5073626;28;20045;-64
2023/05/27 11:52:56;;;;;;;5.30;2.00;;;18.50;55.70;;;;;;5073345;28;20503;-64
2023/05/27 11:55:25;;;;;;;4.32;1.75;;;18.60;53.20;;;;;;5073540;28;20079;-64
2023/05/27 11:57:50;;;;;;;3.78;1.67;;;18.70;57.60;;;;;;5073546;28;20036;-64
2023/05/27 12:00:17;;;;;;;8.85;2.35;;;18.80;55.30;;;;;;5073457;28;20052;-64
2023/05/27 12:02:43;;;;;;;5.78;1.73;;;18.80;56.20;;;;;;5073406;28;20040;-63
2023/05/27 12:05:10;;;;;;;9.38;2.45;;;18.90;48.30;;;;;;5073766;28;20082;-64
2023/05/27 12:07:39;;;;;;;3.38;1.70;;;18.90;52.20;;;;;;5073070;28;20137;-63
2023/05/27 12:10:08;;;;;;;7.57;2.20;;;18.90;55.80;;;;;;5073032;28;20048;-63
2023/05/27 12:12:34;;;;;;;4.60;1.88;;;18.90;55.60;;;;;;5073057;28;20504;-64
2023/05/27 12:15:00;;;;;;;5.95;1.73;;;19.00;52.40;;;;;;5073338;28;20047;-64
2023/05/27 12:17:26;;;;;;;6.93;1.80;;;19.00;51.00;;;;;;5072973;28;20518;-64
2023/05/27 12:19:52;;;;;;;5.50;1.90;;;19.00;51.50;;;;;;5072839;28;20045;-64
2023/05/27 12:22:17;;;;;;;9.35;2.28;;;19.00;49.60;;;;;;5073231;28;20036;-63
2023/05/27 12:24:43;;;;;;;8.07;2.42;;;18.90;48.20;;;;;;5073188;28;20039;-63
2023/05/27 12:27:09;;;;;;;5.65;2.03;;;19.00;46.70;;;;;;5073187;28;20043;-63
2023/05/27 12:29:34;;;;;;;8.07;1.90;;;19.10;50.00;;;;;;5073097;28;20037;-63
2023/05/27 12:32:00;;;;;;;4.60;1.98;;;19.10;51.10;;;;;;5073019;28;20055;-63
2023/05/27 12:34:26;;;;;;;7.68;1.90;;;19.20;48.70;;;;;;5054851;28;20070;-64
2023/05/27 12:36:51;;;;;;;4.10;2.10;;;19.30;51.80;;;;;;5073025;28;20032;-64
2023/05/27 12:39:17;;;;;;;5.72;1.70;;;19.50;51.30;;;;;;5073034;28;20040;-64
2023/05/27 12:41:42;;;;;;;7.10;1.63;;;19.50;48.70;;;;;;5072964;28;20079;-64
2023/05/27 12:44:08;;;;;;;5.78;1.60;;;19.70;52.20;;;;;;5073026;28;20384;-66
2023/05/27 12:46:34;;;;;;;13.10;1.92;;;19.60;52.20;;;;;;5038377;28;20037;-64
2023/05/27 12:49:00;;;;;;;8.93;2.05;;;19.60;51.10;;;;;;5072949;28;20115;-63
2023/05/27 12:51:25;;;;;;;5.85;1.67;;;19.70;51.50;;;;;;5072946;28;20086;-63
2023/05/27 12:53:51;;;;;;;5.00;1.90;;;20.10;53.90;;;;;;5072884;28;20055;-64
2023/05/27 12:56:16;;;;;;;7.55;1.88;;;19.80;52.60;;;;;;5072731;28;20448;-64